CA-0283 weather

CLOSED Pennfield Ridge Airport
New Brunswick, Canada

Public forecast

Using degrees Celsius for public forecast. Weather courtesy of forecast.io.

METAR (pilot weather report)

Closest report is Saint John Airport, 35.3 nm (65.3 km) ENE. Retrieved 2019/08/24 03:00 UTC (57 minutes ago):

CYSJ 240300Z 32008KT 15SM FEW140 BKN250 17/11 A2991 RMK AC2CI3 SLP128 DENSITY ALT 700FT

TAF (pilot weather forecast)

Forecast is more than 12 hours old.

Closest forecast is Saint John Airport, 35.3 nm (65.3 km) ENE. Retrieved 2019/08/23 00:39 UTC (1 day ago):

TAF CYSJ 232338Z 2400/2412 30010KT P6SM SCT006 BKN150 TEMPO 2400/2403 BKN006 FM240600 33007KT P6SM SCT150 FM240900 33008KT P6SM SCT020 FM241100 26010G20KT P6SM BKN020 RMK NXT FCST BY 240600Z